sensor_id;sensor_type;location;lat;lon;timestamp;P1;durP1;ratioP1;P2;durP2;ratioP2
71298;SDS011;59083;47.974;21.722;2023-04-16T00:00:53;17.90;;;10.10;;
71298;SDS011;59083;47.974;21.722;2023-04-16T00:03:54;19.30;;;11.25;;
71298;SDS011;59083;47.974;21.722;2023-04-16T00:06:55;19.98;;;11.00;;
71298;SDS011;59083;47.974;21.722;2023-04-16T00:09:57;20.17;;;11.27;;
71298;SDS011;59083;47.974;21.722;2023-04-16T00:12:58;16.70;;;10.53;;
71298;SDS011;59083;47.974;21.722;2023-04-16T00:15:59;15.57;;;9.67;;
71298;SDS011;59083;47.974;21.722;2023-04-16T00:19:00;17.92;;;10.57;;
71298;SDS011;59083;47.974;21.722;2023-04-16T00:22:02;19.37;;;10.77;;
71298;SDS011;59083;47.974;21.722;2023-04-16T00:25:03;18.12;;;10.50;;
71298;SDS011;59083;47.974;21.722;2023-04-16T00:28:04;15.23;;;9.93;;
71298;SDS011;59083;47.974;21.722;2023-04-16T00:31:06;17.90;;;10.70;;
71298;SDS011;59083;47.974;21.722;2023-04-16T00:34:07;16.60;;;10.38;;
71298;SDS011;59083;47.974;21.722;2023-04-16T00:37:08;16.75;;;10.43;;
71298;SDS011;59083;47.974;21.722;2023-04-16T00:40:10;17.73;;;9.98;;
71298;SDS011;59083;47.974;21.722;2023-04-16T00:43:18;17.57;;;10.07;;
71298;SDS011;59083;47.974;21.722;2023-04-16T00:46:22;18.70;;;10.37;;
71298;SDS011;59083;47.974;21.722;2023-04-16T00:49:24;18.77;;;11.50;;
71298;SDS011;59083;47.974;21.722;2023-04-16T00:52:26;16.17;;;9.88;;
71298;SDS011;59083;47.974;21.722;2023-04-16T00:55:28;18.80;;;10.35;;
71298;SDS011;59083;47.974;21.722;2023-04-16T00:58:29;16.27;;;10.03;;
71298;SDS011;59083;47.974;21.722;2023-04-16T01:01:31;17.60;;;10.37;;
71298;SDS011;59083;47.974;21.722;2023-04-16T01:04:32;17.55;;;10.15;;
71298;SDS011;59083;47.974;21.722;2023-04-16T01:07:34;15.18;;;9.90;;
71298;SDS011;59083;47.974;21.722;2023-04-16T01:10:36;16.30;;;10.23;;
71298;SDS011;59083;47.974;21.722;2023-04-16T01:13:37;15.27;;;10.00;;
71298;SDS011;59083;47.974;21.722;2023-04-16T01:16:39;14.37;;;9.17;;
71298;SDS011;59083;47.974;21.722;2023-04-16T01:19:40;16.10;;;9.63;;
71298;SDS011;59083;47.974;21.722;2023-04-16T01:22:42;15.23;;;9.52;;
71298;SDS011;59083;47.974;21.722;2023-04-16T01:25:44;16.62;;;9.73;;
71298;SDS011;59083;47.974;21.722;2023-04-16T01:28:45;15.40;;;9.43;;
71298;SDS011;59083;47.974;21.722;2023-04-16T01:31:47;15.13;;;10.07;;
71298;SDS011;59083;47.974;21.722;2023-04-16T01:34:48;18.85;;;10.18;;
71298;SDS011;59083;47.974;21.722;2023-04-16T01:37:50;15.38;;;9.20;;
71298;SDS011;59083;47.974;21.722;2023-04-16T01:40:55;14.65;;;9.48;;
71298;SDS011;59083;47.974;21.722;2023-04-16T01:43:57;14.17;;;9.03;;
71298;SDS011;59083;47.974;21.722;2023-04-16T01:46:58;15.90;;;10.10;;
71298;SDS011;59083;47.974;21.722;2023-04-16T01:50:00;17.15;;;9.75;;
71298;SDS011;59083;47.974;21.722;2023-04-16T01:53:03;17.30;;;9.73;;
71298;SDS011;59083;47.974;21.722;2023-04-16T01:56:04;15.43;;;9.40;;
71298;SDS011;59083;47.974;21.722;2023-04-16T01:59:06;15.40;;;9.97;;
71298;SDS011;59083;47.974;21.722;2023-04-16T02:02:08;16.23;;;10.70;;
71298;SDS011;59083;47.974;21.722;2023-04-16T02:05:12;15.75;;;10.38;;
71298;SDS011;59083;47.974;21.722;2023-04-16T02:08:13;16.85;;;10.25;;
71298;SDS011;59083;47.974;21.722;2023-04-16T02:11:15;15.25;;;10.13;;
71298;SDS011;59083;47.974;21.722;2023-04-16T02:14:16;15.73;;;9.83;;
71298;SDS011;59083;47.974;21.722;2023-04-16T02:17:18;16.07;;;10.47;;
71298;SDS011;59083;47.974;21.722;2023-04-16T02:20:19;16.98;;;10.63;;
71298;SDS011;59083;47.974;21.722;2023-04-16T02:23:21;20.10;;;10.50;;
71298;SDS011;59083;47.974;21.722;2023-04-16T02:26:22;16.33;;;10.60;;
71298;SDS011;59083;47.974;21.722;2023-04-16T02:29:24;19.00;;;10.73;;
71298;SDS011;59083;47.974;21.722;2023-04-16T02:32:25;17.83;;;10.30;;
71298;SDS011;59083;47.974;21.722;2023-04-16T02:35:26;17.40;;;10.63;;
71298;SDS011;59083;47.974;21.722;2023-04-16T02:38:28;16.80;;;10.65;;
71298;SDS011;59083;47.974;21.722;2023-04-16T02:41:29;18.12;;;10.85;;
71298;SDS011;59083;47.974;21.722;2023-04-16T02:44:30;19.07;;;11.07;;
71298;SDS011;59083;47.974;21.722;2023-04-16T02:47:31;19.30;;;11.90;;
71298;SDS011;59083;47.974;21.722;2023-04-16T02:50:32;19.65;;;11.43;;
71298;SDS011;59083;47.974;21.722;2023-04-16T02:53:34;20.60;;;11.73;;
71298;SDS011;59083;47.974;21.722;2023-04-16T02:56:35;21.85;;;12.25;;
71298;SDS011;59083;47.974;21.722;2023-04-16T02:59:37;18.80;;;11.60;;
71298;SDS011;59083;47.974;21.722;2023-04-16T03:02:38;19.63;;;11.80;;
71298;SDS011;59083;47.974;21.722;2023-04-16T03:05:39;19.48;;;11.65;;
71298;SDS011;59083;47.974;21.722;2023-04-16T03:08:40;19.92;;;12.13;;
71298;SDS011;59083;47.974;21.722;2023-04-16T03:11:42;19.30;;;12.30;;
71298;SDS011;59083;47.974;21.722;2023-04-16T03:14:43;19.20;;;11.80;;
71298;SDS011;59083;47.974;21.722;2023-04-16T03:17:44;21.13;;;12.60;;
71298;SDS011;59083;47.974;21.722;2023-04-16T03:20:49;21.42;;;12.20;;
71298;SDS011;59083;47.974;21.722;2023-04-16T03:23:51;20.37;;;11.98;;
71298;SDS011;59083;47.974;21.722;2023-04-16T03:26:55;23.95;;;12.05;;
71298;SDS011;59083;47.974;21.722;2023-04-16T03:29:57;18.57;;;11.87;;
71298;SDS011;59083;47.974;21.722;2023-04-16T03:32:59;20.47;;;11.53;;
71298;SDS011;59083;47.974;21.722;2023-04-16T03:36:00;21.08;;;11.32;;
71298;SDS011;59083;47.974;21.722;2023-04-16T03:39:02;19.27;;;11.45;;
71298;SDS011;59083;47.974;21.722;2023-04-16T03:42:04;19.35;;;11.48;;
71298;SDS011;59083;47.974;21.722;2023-04-16T03:45:06;20.73;;;11.23;;
71298;SDS011;59083;47.974;21.722;2023-04-16T03:48:10;18.73;;;11.50;;
71298;SDS011;59083;47.974;21.722;2023-04-16T03:51:11;17.85;;;11.55;;
71298;SDS011;59083;47.974;21.722;2023-04-16T03:54:13;18.77;;;11.65;;
71298;SDS011;59083;47.974;21.722;2023-04-16T03:57:15;20.25;;;12.02;;
71298;SDS011;59083;47.974;21.722;2023-04-16T04:00:16;18.37;;;11.23;;
71298;SDS011;59083;47.974;21.722;2023-04-16T04:03:20;19.00;;;11.27;;
71298;SDS011;59083;47.974;21.722;2023-04-16T04:06:22;19.27;;;11.50;;
71298;SDS011;59083;47.974;21.722;2023-04-16T04:09:23;18.17;;;10.75;;
71298;SDS011;59083;47.974;21.722;2023-04-16T04:12:24;21.12;;;11.38;;
71298;SDS011;59083;47.974;21.722;2023-04-16T04:15:26;15.97;;;10.47;;
71298;SDS011;59083;47.974;21.722;2023-04-16T04:18:28;17.00;;;10.87;;
71298;SDS011;59083;47.974;21.722;2023-04-16T04:21:29;20.27;;;11.25;;
71298;SDS011;59083;47.974;21.722;2023-04-16T04:24:31;17.17;;;10.48;;
71298;SDS011;59083;47.974;21.722;2023-04-16T04:27:33;17.27;;;10.95;;
71298;SDS011;59083;47.974;21.722;2023-04-16T04:30:34;16.87;;;10.30;;
71298;SDS011;59083;47.974;21.722;2023-04-16T04:33:39;17.30;;;10.53;;
71298;SDS011;59083;47.974;21.722;2023-04-16T04:36:40;16.40;;;10.15;;
71298;SDS011;59083;47.974;21.722;2023-04-16T04:39:42;17.05;;;10.35;;
71298;SDS011;59083;47.974;21.722;2023-04-16T04:42:43;16.55;;;10.13;;
71298;SDS011;59083;47.974;21.722;2023-04-16T04:45:44;15.20;;;9.47;;
71298;SDS011;59083;47.974;21.722;2023-04-16T04:48:46;14.00;;;8.60;;
71298;SDS011;59083;47.974;21.722;2023-04-16T04:51:50;12.05;;;8.25;;
71298;SDS011;59083;47.974;21.722;2023-04-16T04:54:51;11.90;;;7.03;;
71298;SDS011;59083;47.974;21.722;2023-04-16T04:57:53;11.93;;;6.70;;
71298;SDS011;59083;47.974;21.722;2023-04-16T05:00:54;10.60;;;7.13;;
71298;SDS011;59083;47.974;21.722;2023-04-16T05:03:55;11.33;;;6.47;;
71298;SDS011;59083;47.974;21.722;2023-04-16T05:06:56;9.25;;;6.20;;
71298;SDS011;59083;47.974;21.722;2023-04-16T05:09:58;11.12;;;6.65;;
71298;SDS011;59083;47.974;21.722;2023-04-16T05:12:59;9.85;;;6.22;;
71298;SDS011;59083;47.974;21.722;2023-04-16T05:16:00;9.98;;;6.22;;
71298;SDS011;59083;47.974;21.722;2023-04-16T05:19:01;11.07;;;6.37;;
71298;SDS011;59083;47.974;21.722;2023-04-16T05:22:03;9.95;;;6.68;;
71298;SDS011;59083;47.974;21.722;2023-04-16T05:25:04;9.98;;;6.43;;
71298;SDS011;59083;47.974;21.722;2023-04-16T05:28:06;10.27;;;6.32;;
71298;SDS011;59083;47.974;21.722;2023-04-16T05:31:07;10.50;;;6.33;;
71298;SDS011;59083;47.974;21.722;2023-04-16T05:34:08;9.43;;;6.23;;
71298;SDS011;59083;47.974;21.722;2023-04-16T05:37:09;9.65;;;5.80;;
71298;SDS011;59083;47.974;21.722;2023-04-16T05:40:12;9.23;;;6.10;;
71298;SDS011;59083;47.974;21.722;2023-04-16T05:43:13;10.93;;;5.90;;
71298;SDS011;59083;47.974;21.722;2023-04-16T05:46:14;9.20;;;5.60;;
71298;SDS011;59083;47.974;21.722;2023-04-16T05:49:16;10.47;;;5.90;;
71298;SDS011;59083;47.974;21.722;2023-04-16T05:52:18;10.93;;;5.87;;
71298;SDS011;59083;47.974;21.722;2023-04-16T05:55:19;11.05;;;5.68;;
71298;SDS011;59083;47.974;21.722;2023-04-16T05:58:21;11.20;;;6.10;;
71298;SDS011;59083;47.974;21.722;2023-04-16T06:01:22;11.12;;;6.00;;
71298;SDS011;59083;47.974;21.722;2023-04-16T06:04:23;9.50;;;5.77;;
71298;SDS011;59083;47.974;21.722;2023-04-16T06:07:24;9.75;;;5.82;;
71298;SDS011;59083;47.974;21.722;2023-04-16T06:10:26;10.93;;;6.10;;
71298;SDS011;59083;47.974;21.722;2023-04-16T06:13:27;10.18;;;5.72;;
71298;SDS011;59083;47.974;21.722;2023-04-16T06:16:29;9.33;;;5.60;;
71298;SDS011;59083;47.974;21.722;2023-04-16T06:19:30;12.83;;;6.80;;
71298;SDS011;59083;47.974;21.722;2023-04-16T06:22:31;10.95;;;5.85;;
71298;SDS011;59083;47.974;21.722;2023-04-16T06:25:32;11.57;;;5.93;;
71298;SDS011;59083;47.974;21.722;2023-04-16T06:28:34;10.57;;;5.90;;
71298;SDS011;59083;47.974;21.722;2023-04-16T06:31:35;12.40;;;5.57;;
71298;SDS011;59083;47.974;21.722;2023-04-16T06:34:37;10.07;;;5.87;;
71298;SDS011;59083;47.974;21.722;2023-04-16T06:37:38;12.45;;;5.82;;
71298;SDS011;59083;47.974;21.722;2023-04-16T06:40:40;10.30;;;5.78;;
71298;SDS011;59083;47.974;21.722;2023-04-16T06:43:41;9.23;;;5.78;;
71298;SDS011;59083;47.974;21.722;2023-04-16T06:46:42;9.80;;;5.60;;
71298;SDS011;59083;47.974;21.722;2023-04-16T06:49:43;9.47;;;5.50;;
71298;SDS011;59083;47.974;21.722;2023-04-16T06:52:45;9.75;;;5.68;;
71298;SDS011;59083;47.974;21.722;2023-04-16T06:55:46;10.05;;;5.20;;
71298;SDS011;59083;47.974;21.722;2023-04-16T06:58:47;8.90;;;5.10;;
71298;SDS011;59083;47.974;21.722;2023-04-16T07:01:50;9.02;;;5.30;;
71298;SDS011;59083;47.974;21.722;2023-04-16T07:04:52;9.90;;;5.37;;
71298;SDS011;59083;47.974;21.722;2023-04-16T07:07:53;9.30;;;5.55;;
71298;SDS011;59083;47.974;21.722;2023-04-16T07:10:57;9.77;;;5.45;;
71298;SDS011;59083;47.974;21.722;2023-04-16T07:13:58;10.05;;;5.35;;
71298;SDS011;59083;47.974;21.722;2023-04-16T07:17:00;9.45;;;5.40;;
71298;SDS011;59083;47.974;21.722;2023-04-16T07:20:01;8.87;;;5.47;;
71298;SDS011;59083;47.974;21.722;2023-04-16T07:23:02;11.30;;;5.53;;
71298;SDS011;59083;47.974;21.722;2023-04-16T07:26:03;10.35;;;5.90;;
71298;SDS011;59083;47.974;21.722;2023-04-16T07:29:04;8.90;;;5.45;;
71298;SDS011;59083;47.974;21.722;2023-04-16T07:32:06;9.32;;;5.50;;
71298;SDS011;59083;47.974;21.722;2023-04-16T07:35:07;9.50;;;5.87;;
71298;SDS011;59083;47.974;21.722;2023-04-16T07:38:09;9.68;;;5.50;;
71298;SDS011;59083;47.974;21.722;2023-04-16T07:41:10;8.57;;;5.20;;
71298;SDS011;59083;47.974;21.722;2023-04-16T07:44:11;10.82;;;5.30;;
71298;SDS011;59083;47.974;21.722;2023-04-16T07:47:13;9.13;;;5.20;;
71298;SDS011;59083;47.974;21.722;2023-04-16T07:50:14;9.00;;;5.57;;
71298;SDS011;59083;47.974;21.722;2023-04-16T07:53:16;9.95;;;5.00;;
71298;SDS011;59083;47.974;21.722;2023-04-16T07:56:17;8.82;;;5.22;;
71298;SDS011;59083;47.974;21.722;2023-04-16T07:59:18;9.27;;;5.40;;
71298;SDS011;59083;47.974;21.722;2023-04-16T08:02:20;7.60;;;4.20;;
71298;SDS011;59083;47.974;21.722;2023-04-16T08:05:21;9.57;;;5.10;;
71298;SDS011;59083;47.974;21.722;2023-04-16T08:08:22;8.00;;;4.40;;
71298;SDS011;59083;47.974;21.722;2023-04-16T08:11:24;9.68;;;4.60;;
71298;SDS011;59083;47.974;21.722;2023-04-16T08:14:25;8.80;;;4.97;;
71298;SDS011;59083;47.974;21.722;2023-04-16T08:17:26;8.50;;;4.70;;
71298;SDS011;59083;47.974;21.722;2023-04-16T08:20:29;9.87;;;4.67;;
71298;SDS011;59083;47.974;21.722;2023-04-16T08:23:30;10.25;;;4.50;;
71298;SDS011;59083;47.974;21.722;2023-04-16T08:26:32;10.57;;;4.47;;
71298;SDS011;59083;47.974;21.722;2023-04-16T08:29:33;6.87;;;4.35;;
71298;SDS011;59083;47.974;21.722;2023-04-16T08:32:34;10.50;;;4.80;;
71298;SDS011;59083;47.974;21.722;2023-04-16T08:35:35;8.10;;;4.50;;
71298;SDS011;59083;47.974;21.722;2023-04-16T08:38:36;9.32;;;4.70;;
71298;SDS011;59083;47.974;21.722;2023-04-16T08:41:41;10.93;;;4.43;;
71298;SDS011;59083;47.974;21.722;2023-04-16T08:44:45;8.13;;;4.35;;
71298;SDS011;59083;47.974;21.722;2023-04-16T08:47:49;8.07;;;4.10;;
71298;SDS011;59083;47.974;21.722;2023-04-16T08:50:51;7.10;;;4.03;;
71298;SDS011;59083;47.974;21.722;2023-04-16T08:53:58;7.05;;;3.70;;
71298;SDS011;59083;47.974;21.722;2023-04-16T08:57:03;8.05;;;4.10;;
71298;SDS011;59083;47.974;21.722;2023-04-16T09:00:06;7.70;;;4.00;;
71298;SDS011;59083;47.974;21.722;2023-04-16T09:03:08;7.07;;;3.70;;
71298;SDS011;59083;47.974;21.722;2023-04-16T09:06:10;8.53;;;3.60;;
71298;SDS011;59083;47.974;21.722;2023-04-16T09:09:12;8.88;;;3.67;;
71298;SDS011;59083;47.974;21.722;2023-04-16T09:12:16;7.28;;;3.42;;
71298;SDS011;59083;47.974;21.722;2023-04-16T09:15:17;7.30;;;3.42;;
71298;SDS011;59083;47.974;21.722;2023-04-16T09:18:21;7.50;;;3.65;;
71298;SDS011;59083;47.974;21.722;2023-04-16T09:21:22;8.27;;;3.47;;
71298;SDS011;59083;47.974;21.722;2023-04-16T09:24:25;9.85;;;3.42;;
71298;SDS011;59083;47.974;21.722;2023-04-16T09:27:26;6.20;;;3.20;;
71298;SDS011;59083;47.974;21.722;2023-04-16T09:30:28;6.97;;;3.75;;
71298;SDS011;59083;47.974;21.722;2023-04-16T09:33:29;13.35;;;3.28;;
71298;SDS011;59083;47.974;21.722;2023-04-16T09:36:31;7.17;;;3.27;;
71298;SDS011;59083;47.974;21.722;2023-04-16T09:39:33;7.40;;;3.05;;
71298;SDS011;59083;47.974;21.722;2023-04-16T09:42:35;6.22;;;2.80;;
71298;SDS011;59083;47.974;21.722;2023-04-16T09:45:52;5.82;;;2.70;;
71298;SDS011;59083;47.974;21.722;2023-04-16T09:48:55;6.20;;;2.80;;
71298;SDS011;59083;47.974;21.722;2023-04-16T09:51:56;5.33;;;2.70;;
71298;SDS011;59083;47.974;21.722;2023-04-16T09:54:59;5.75;;;2.70;;
71298;SDS011;59083;47.974;21.722;2023-04-16T09:58:01;5.82;;;2.80;;
71298;SDS011;59083;47.974;21.722;2023-04-16T10:01:12;5.47;;;2.70;;
71298;SDS011;59083;47.974;21.722;2023-04-16T10:04:14;5.93;;;2.70;;
71298;SDS011;59083;47.974;21.722;2023-04-16T10:07:15;5.43;;;2.60;;
71298;SDS011;59083;47.974;21.722;2023-04-16T10:10:17;6.90;;;2.80;;
71298;SDS011;59083;47.974;21.722;2023-04-16T10:13:18;7.07;;;2.83;;
71298;SDS011;59083;47.974;21.722;2023-04-16T10:16:20;6.00;;;2.58;;
71298;SDS011;59083;47.974;21.722;2023-04-16T10:19:22;5.60;;;2.37;;
71298;SDS011;59083;47.974;21.722;2023-04-16T10:22:24;6.97;;;3.10;;
71298;SDS011;59083;47.974;21.722;2023-04-16T10:25:26;6.28;;;2.62;;
71298;SDS011;59083;47.974;21.722;2023-04-16T10:28:28;5.12;;;2.35;;
71298;SDS011;59083;47.974;21.722;2023-04-16T10:31:30;6.62;;;2.40;;
71298;SDS011;59083;47.974;21.722;2023-04-16T10:34:31;7.43;;;2.60;;
71298;SDS011;59083;47.974;21.722;2023-04-16T10:37:33;7.37;;;2.50;;
71298;SDS011;59083;47.974;21.722;2023-04-16T10:40:34;6.87;;;2.58;;
71298;SDS011;59083;47.974;21.722;2023-04-16T10:43:39;6.62;;;2.60;;
71298;SDS011;59083;47.974;21.722;2023-04-16T10:46:46;7.28;;;2.60;;
71298;SDS011;59083;47.974;21.722;2023-04-16T10:49:50;4.32;;;2.20;;
71298;SDS011;59083;47.974;21.722;2023-04-16T10:56:26;6.50;;;2.58;;
71298;SDS011;59083;47.974;21.722;2023-04-16T10:59:31;5.00;;;2.12;;
71298;SDS011;59083;47.974;21.722;2023-04-16T11:02:34;6.28;;;2.40;;
71298;SDS011;59083;47.974;21.722;2023-04-16T11:05:45;7.43;;;2.10;;
71298;SDS011;59083;47.974;21.722;2023-04-16T11:08:52;5.27;;;2.83;;
71298;SDS011;59083;47.974;21.722;2023-04-16T11:11:54;5.35;;;2.25;;
71298;SDS011;59083;47.974;21.722;2023-04-16T11:14:59;5.03;;;2.20;;
71298;SDS011;59083;47.974;21.722;2023-04-16T11:18:04;5.40;;;2.08;;
71298;SDS011;59083;47.974;21.722;2023-04-16T11:21:10;6.93;;;2.33;;
71298;SDS011;59083;47.974;21.722;2023-04-16T11:24:12;7.87;;;2.30;;
71298;SDS011;59083;47.974;21.722;2023-04-16T11:27:13;6.30;;;2.40;;
71298;SDS011;59083;47.974;21.722;2023-04-16T11:30:16;4.70;;;2.25;;
71298;SDS011;59083;47.974;21.722;2023-04-16T11:33:17;4.70;;;2.05;;
71298;SDS011;59083;47.974;21.722;2023-04-16T11:36:19;4.55;;;2.15;;
71298;SDS011;59083;47.974;21.722;2023-04-16T11:39:20;6.77;;;2.00;;
71298;SDS011;59083;47.974;21.722;2023-04-16T11:42:21;5.90;;;2.20;;
71298;SDS011;59083;47.974;21.722;2023-04-16T11:45:22;6.45;;;2.35;;
71298;SDS011;59083;47.974;21.722;2023-04-16T11:48:24;5.32;;;2.20;;
71298;SDS011;59083;47.974;21.722;2023-04-16T11:51:25;5.87;;;2.33;;
71298;SDS011;59083;47.974;21.722;2023-04-16T11:54:26;4.87;;;2.10;;
71298;SDS011;59083;47.974;21.722;2023-04-16T11:57:28;5.75;;;2.05;;
71298;SDS011;59083;47.974;21.722;2023-04-16T12:00:33;4.78;;;1.90;;
71298;SDS011;59083;47.974;21.722;2023-04-16T12:03:36;5.37;;;2.30;;
71298;SDS011;59083;47.974;21.722;2023-04-16T12:06:38;5.80;;;2.40;;
71298;SDS011;59083;47.974;21.722;2023-04-16T12:09:42;5.43;;;1.90;;
71298;SDS011;59083;47.974;21.722;2023-04-16T12:12:43;5.75;;;2.22;;
71298;SDS011;59083;47.974;21.722;2023-04-16T12:16:06;4.43;;;1.95;;
71298;SDS011;59083;47.974;21.722;2023-04-16T12:19:20;5.75;;;2.10;;
71298;SDS011;59083;47.974;21.722;2023-04-16T12:22:28;5.37;;;2.20;;
71298;SDS011;59083;47.974;21.722;2023-04-16T12:25:31;4.57;;;2.10;;
71298;SDS011;59083;47.974;21.722;2023-04-16T12:28:33;5.75;;;2.03;;
71298;SDS011;59083;47.974;21.722;2023-04-16T12:31:35;5.00;;;2.00;;
71298;SDS011;59083;47.974;21.722;2023-04-16T12:34:48;4.53;;;2.00;;
71298;SDS011;59083;47.974;21.722;2023-04-16T12:37:50;5.50;;;2.20;;
71298;SDS011;59083;47.974;21.722;2023-04-16T12:40:52;6.37;;;1.90;;
71298;SDS011;59083;47.974;21.722;2023-04-16T12:44:03;4.97;;;2.10;;
71298;SDS011;59083;47.974;21.722;2023-04-16T12:47:04;4.40;;;2.00;;
71298;SDS011;59083;47.974;21.722;2023-04-16T12:50:06;3.70;;;1.70;;
71298;SDS011;59083;47.974;21.722;2023-04-16T12:53:07;5.00;;;1.87;;
71298;SDS011;59083;47.974;21.722;2023-04-16T12:56:08;4.47;;;1.73;;
71298;SDS011;59083;47.974;21.722;2023-04-16T12:59:10;4.37;;;1.80;;
71298;SDS011;59083;47.974;21.722;2023-04-16T13:02:11;7.32;;;1.90;;
71298;SDS011;59083;47.974;21.722;2023-04-16T13:05:13;4.43;;;1.80;;
71298;SDS011;59083;47.974;21.722;2023-04-16T13:08:16;3.77;;;1.60;;
71298;SDS011;59083;47.974;21.722;2023-04-16T13:11:17;3.33;;;1.57;;
71298;SDS011;59083;47.974;21.722;2023-04-16T13:14:19;3.75;;;1.58;;
71298;SDS011;59083;47.974;21.722;2023-04-16T13:17:21;4.28;;;1.65;;
71298;SDS011;59083;47.974;21.722;2023-04-16T13:20:22;3.00;;;1.60;;
71298;SDS011;59083;47.974;21.722;2023-04-16T13:23:23;3.10;;;1.58;;
71298;SDS011;59083;47.974;21.722;2023-04-16T13:26:24;3.27;;;1.60;;
71298;SDS011;59083;47.974;21.722;2023-04-16T13:29:26;4.15;;;1.70;;
71298;SDS011;59083;47.974;21.722;2023-04-16T13:32:28;3.67;;;1.40;;
71298;SDS011;59083;47.974;21.722;2023-04-16T13:35:29;5.15;;;1.40;;
71298;SDS011;59083;47.974;21.722;2023-04-16T13:38:30;4.12;;;1.50;;
71298;SDS011;59083;47.974;21.722;2023-04-16T13:41:32;3.77;;;1.50;;
71298;SDS011;59083;47.974;21.722;2023-04-16T13:44:33;3.97;;;1.45;;
71298;SDS011;59083;47.974;21.722;2023-04-16T13:47:34;6.00;;;1.50;;
71298;SDS011;59083;47.974;21.722;2023-04-16T13:50:36;3.25;;;1.40;;
71298;SDS011;59083;47.974;21.722;2023-04-16T13:53:37;2.65;;;1.35;;
71298;SDS011;59083;47.974;21.722;2023-04-16T13:56:38;5.50;;;1.60;;
71298;SDS011;59083;47.974;21.722;2023-04-16T13:59:40;5.55;;;1.70;;
71298;SDS011;59083;47.974;21.722;2023-04-16T14:02:41;3.47;;;1.50;;
71298;SDS011;59083;47.974;21.722;2023-04-16T14:05:45;3.12;;;1.60;;
71298;SDS011;59083;47.974;21.722;2023-04-16T14:08:46;3.23;;;1.53;;
71298;SDS011;59083;47.974;21.722;2023-04-16T14:11:47;3.23;;;1.47;;
71298;SDS011;59083;47.974;21.722;2023-04-16T14:14:49;4.78;;;1.40;;
71298;SDS011;59083;47.974;21.722;2023-04-16T14:17:50;2.40;;;1.20;;
71298;SDS011;59083;47.974;21.722;2023-04-16T14:20:51;3.40;;;1.35;;
71298;SDS011;59083;47.974;21.722;2023-04-16T14:23:52;4.15;;;1.40;;
71298;SDS011;59083;47.974;21.722;2023-04-16T14:26:53;3.27;;;1.40;;
71298;SDS011;59083;47.974;21.722;2023-04-16T14:29:55;2.53;;;1.30;;
71298;SDS011;59083;47.974;21.722;2023-04-16T14:32:56;2.25;;;1.15;;
71298;SDS011;59083;47.974;21.722;2023-04-16T14:35:58;2.50;;;1.12;;
71298;SDS011;59083;47.974;21.722;2023-04-16T14:39:00;3.67;;;1.20;;
71298;SDS011;59083;47.974;21.722;2023-04-16T14:42:01;3.73;;;1.10;;
71298;SDS011;59083;47.974;21.722;2023-04-16T14:45:03;3.22;;;1.20;;
71298;SDS011;59083;47.974;21.722;2023-04-16T14:48:06;3.25;;;1.15;;
71298;SDS011;59083;47.974;21.722;2023-04-16T14:51:07;2.85;;;1.37;;
71298;SDS011;59083;47.974;21.722;2023-04-16T14:54:08;2.78;;;1.20;;
71298;SDS011;59083;47.974;21.722;2023-04-16T14:57:11;2.50;;;1.20;;
71298;SDS011;59083;47.974;21.722;2023-04-16T15:00:12;5.97;;;1.27;;
71298;SDS011;59083;47.974;21.722;2023-04-16T15:03:16;2.85;;;1.30;;
71298;SDS011;59083;47.974;21.722;2023-04-16T15:06:18;2.75;;;1.20;;
71298;SDS011;59083;47.974;21.722;2023-04-16T15:09:19;2.20;;;1.10;;
71298;SDS011;59083;47.974;21.722;2023-04-16T15:12:20;2.37;;;1.17;;
71298;SDS011;59083;47.974;21.722;2023-04-16T15:15:21;2.92;;;1.20;;
71298;SDS011;59083;47.974;21.722;2023-04-16T15:18:22;3.58;;;1.20;;
71298;SDS011;59083;47.974;21.722;2023-04-16T15:21:24;2.87;;;1.30;;
71298;SDS011;59083;47.974;21.722;2023-04-16T15:24:26;2.83;;;1.50;;
71298;SDS011;59083;47.974;21.722;2023-04-16T15:27:27;2.50;;;1.20;;
71298;SDS011;59083;47.974;21.722;2023-04-16T15:30:29;3.25;;;1.20;;
71298;SDS011;59083;47.974;21.722;2023-04-16T15:33:30;2.67;;;1.20;;
71298;SDS011;59083;47.974;21.722;2023-04-16T15:36:32;2.15;;;1.12;;
71298;SDS011;59083;47.974;21.722;2023-04-16T15:39:33;2.70;;;1.10;;
71298;SDS011;59083;47.974;21.722;2023-04-16T15:42:34;2.27;;;1.03;;
71298;SDS011;59083;47.974;21.722;2023-04-16T15:45:35;3.85;;;1.50;;
71298;SDS011;59083;47.974;21.722;2023-04-16T15:48:37;2.83;;;1.20;;
71298;SDS011;59083;47.974;21.722;2023-04-16T15:51:38;3.03;;;1.30;;
71298;SDS011;59083;47.974;21.722;2023-04-16T15:54:40;4.53;;;1.33;;
71298;SDS011;59083;47.974;21.722;2023-04-16T15:57:42;2.63;;;1.33;;
71298;SDS011;59083;47.974;21.722;2023-04-16T16:00:43;3.28;;;1.50;;
71298;SDS011;59083;47.974;21.722;2023-04-16T16:03:49;3.62;;;1.60;;
71298;SDS011;59083;47.974;21.722;2023-04-16T16:06:51;6.80;;;1.62;;
71298;SDS011;59083;47.974;21.722;2023-04-16T16:09:52;2.92;;;1.33;;
71298;SDS011;59083;47.974;21.722;2023-04-16T16:12:53;3.77;;;1.60;;
71298;SDS011;59083;47.974;21.722;2023-04-16T16:15:57;4.45;;;1.37;;
71298;SDS011;59083;47.974;21.722;2023-04-16T16:18:58;4.03;;;1.55;;
71298;SDS011;59083;47.974;21.722;2023-04-16T16:21:59;4.25;;;1.67;;
71298;SDS011;59083;47.974;21.722;2023-04-16T16:25:00;3.05;;;1.30;;
71298;SDS011;59083;47.974;21.722;2023-04-16T16:28:01;3.50;;;1.70;;
71298;SDS011;59083;47.974;21.722;2023-04-16T16:31:04;5.50;;;1.70;;
71298;SDS011;59083;47.974;21.722;2023-04-16T16:34:07;4.22;;;1.70;;
71298;SDS011;59083;47.974;21.722;2023-04-16T16:37:08;4.93;;;1.60;;
71298;SDS011;59083;47.974;21.722;2023-04-16T16:40:09;5.87;;;1.90;;
71298;SDS011;59083;47.974;21.722;2023-04-16T16:43:11;5.10;;;2.00;;
71298;SDS011;59083;47.974;21.722;2023-04-16T16:46:12;5.97;;;2.12;;
71298;SDS011;59083;47.974;21.722;2023-04-16T16:49:14;5.55;;;2.30;;
71298;SDS011;59083;47.974;21.722;2023-04-16T16:52:15;7.03;;;2.20;;
71298;SDS011;59083;47.974;21.722;2023-04-16T16:55:16;7.00;;;2.33;;
71298;SDS011;59083;47.974;21.722;2023-04-16T16:58:18;6.70;;;2.20;;
71298;SDS011;59083;47.974;21.722;2023-04-16T17:01:19;9.18;;;3.90;;
71298;SDS011;59083;47.974;21.722;2023-04-16T17:04:21;7.32;;;2.92;;
71298;SDS011;59083;47.974;21.722;2023-04-16T17:07:22;5.85;;;2.42;;
71298;SDS011;59083;47.974;21.722;2023-04-16T17:10:23;6.35;;;2.20;;
71298;SDS011;59083;47.974;21.722;2023-04-16T17:13:24;5.00;;;2.03;;
71298;SDS011;59083;47.974;21.722;2023-04-16T17:16:26;5.18;;;2.20;;
71298;SDS011;59083;47.974;21.722;2023-04-16T17:19:27;6.43;;;2.50;;
71298;SDS011;59083;47.974;21.722;2023-04-16T17:22:28;6.65;;;2.58;;
71298;SDS011;59083;47.974;21.722;2023-04-16T17:25:30;7.37;;;3.00;;
71298;SDS011;59083;47.974;21.722;2023-04-16T17:28:31;8.97;;;3.60;;
71298;SDS011;59083;47.974;21.722;2023-04-16T17:31:32;8.35;;;3.42;;
71298;SDS011;59083;47.974;21.722;2023-04-16T17:34:34;7.37;;;2.95;;
71298;SDS011;59083;47.974;21.722;2023-04-16T17:37:35;8.88;;;3.33;;
71298;SDS011;59083;47.974;21.722;2023-04-16T17:40:36;6.80;;;2.97;;
71298;SDS011;59083;47.974;21.722;2023-04-16T17:43:37;8.63;;;2.77;;
71298;SDS011;59083;47.974;21.722;2023-04-16T17:46:38;5.45;;;2.42;;
71298;SDS011;59083;47.974;21.722;2023-04-16T17:49:39;7.25;;;2.58;;
71298;SDS011;59083;47.974;21.722;2023-04-16T17:52:41;5.35;;;2.17;;